Tixi — OH5935 — position and weather

sailwx.info

Track history (hours):
 
Tides and Currents Weather Stations Pressure Air Temp Water Temp Dewpoint Dewpoint Depression Visibility Wind Speed Wind Dir Waves Ship Positions

Tixi

Last reported at 2017-Oct-17 10:00 UTC. Time now 2017-Nov-22 14:54 UTC.
Position N 37°03' W 008°31'.
Warning: this ship's position is 36 days out of date.

Length 12 m.

Type: Pleasure craft. MMSI: 230088260.

Date/timePositionNaut miles runAvg speedWind from/ knotsBaromVisibWave heightAir tempDewpointWater temp
2017-Oct-17 10:00N 37°03' W 008°31'3 5.6
2017-Oct-17 09:23N 37°04' W 008°35'2 5.8
2017-Oct-17 08:59N 37°05' W 008°38'3 1.5
2017-Oct-17 07:15N 37°07' W 008°40'0 0.0
2017-Oct-17 02:15N 37°07' W 008°40'0 0.0
2017-Oct-17 02:00N 37°07' W 008°40'0 0.0
2017-Oct-17 01:27N 37°07' W 008°40'0 0.0
2017-Oct-17 00:51N 37°07' W 008°40'0 0.0
2017-Oct-17 00:27N 37°07' W 008°40'0 0.0
2017-Oct-16 13:08N 37°07' W 008°40'0 0.0
2017-Oct-16 12:50N 37°07' W 008°40'0 0.0
2017-Oct-16 12:26N 37°07' W 008°40'  
2017-Oct-12 17:18N 37°07' W 008°40'0 0.0
2017-Oct-10 15:34N 37°07' W 008°40'0 0.1
2017-Oct-10 15:27N 37°07' W 008°40'1 0.8
2017-Oct-10 14:46N 37°06' W 008°40'5 4.7
2017-Oct-10 13:45N 37°02' W 008°44'1 5.6
2017-Oct-10 13:30N 37°02' W 008°46'3 4.3
2017-Oct-10 12:49N 37°01' W 008°49'1 3.6
2017-Oct-10 12:28N 36°60' W 008°50'2 3.9
2017-Oct-10 11:57N 36°59' W 008°52'1 2.8
2017-Oct-10 11:30N 36°59' W 008°53'4 0.2
2017-Oct-09 15:28N 37°00' W 008°58'3 5.5
2017-Oct-09 15:00N 37°01' W 009°01'10 6.6
2017-Oct-09 13:33N 37°11' W 009°01'1 6.7
2017-Oct-09 13:23N 37°12' W 009°01'3 6.7
2017-Oct-09 13:00N 37°15' W 009°01'3 6.7
2017-Oct-09 12:30N 37°18' W 009°00'4 7.2
2017-Oct-09 12:00N 37°22' W 008°60'4 7.2
2017-Oct-09 11:29N 37°25' W 008°59'4 6.7
2017-Oct-09 10:57N 37°29' W 008°59'3 6.9
2017-Oct-09 10:30N 37°32' W 008°58'6 6.8
2017-Oct-09 09:37N 37°38' W 008°57'1 5.7
2017-Oct-09 09:26N 37°39' W 008°57'4 6.8
2017-Oct-09 08:52N 37°43' W 008°56'4 7.0
2017-Oct-09 08:18N 37°47' W 008°56'2 6.5
2017-Oct-09 08:00N 37°49' W 008°55'3 6.4
2017-Oct-09 07:30N 37°52' W 008°55'3 6.2
2017-Oct-09 07:00N 37°55' W 008°54'3 5.3
2017-Oct-09 06:31N 37°57' W 008°52'0 0.4
2017-Oct-09 05:59N 37°57' W 008°52'0 0.0
2017-Oct-09 05:29N 37°57' W 008°52'  
Track history (hours):
 
Tides and Currents Weather Stations Pressure Air Temp Water Temp Dewpoint Dewpoint Depression Visibility Wind Speed Wind Dir Waves Ship Positions

Tixi

Last reported at 2017-Oct-17 10:00 UTC. Time now 2017-Nov-22 14:54 UTC.
Position N 37°03' W 008°31'.
Warning: this ship's position is 36 days out of date.

Length 12 m.

Type: Pleasure craft. MMSI: 230088260.

Date/timePositionNaut miles runAvg speedWind from/ knotsBaromVisibWave heightAir tempDewpointWater temp
2017-Oct-17 10:00N 37°03' W 008°31'3 5.6
2017-Oct-17 09:23N 37°04' W 008°35'2 5.8
2017-Oct-17 08:59N 37°05' W 008°38'3 1.5
2017-Oct-17 07:15N 37°07' W 008°40'0 0.0
2017-Oct-17 02:15N 37°07' W 008°40'0 0.0
2017-Oct-17 02:00N 37°07' W 008°40'0 0.0
2017-Oct-17 01:27N 37°07' W 008°40'0 0.0
2017-Oct-17 00:51N 37°07' W 008°40'0 0.0
2017-Oct-17 00:27N 37°07' W 008°40'0 0.0
2017-Oct-16 13:08N 37°07' W 008°40'0 0.0
2017-Oct-16 12:50N 37°07' W 008°40'0 0.0
2017-Oct-16 12:26N 37°07' W 008°40'  
2017-Oct-12 17:18N 37°07' W 008°40'0 0.0
2017-Oct-10 15:34N 37°07' W 008°40'0 0.1
2017-Oct-10 15:27N 37°07' W 008°40'1 0.8
2017-Oct-10 14:46N 37°06' W 008°40'5 4.7
2017-Oct-10 13:45N 37°02' W 008°44'1 5.6
2017-Oct-10 13:30N 37°02' W 008°46'3 4.3
2017-Oct-10 12:49N 37°01' W 008°49'1 3.6
2017-Oct-10 12:28N 36°60' W 008°50'2 3.9
2017-Oct-10 11:57N 36°59' W 008°52'1 2.8
2017-Oct-10 11:30N 36°59' W 008°53'4 0.2
2017-Oct-09 15:28N 37°00' W 008°58'3 5.5
2017-Oct-09 15:00N 37°01' W 009°01'10 6.6
2017-Oct-09 13:33N 37°11' W 009°01'1 6.7
2017-Oct-09 13:23N 37°12' W 009°01'3 6.7
2017-Oct-09 13:00N 37°15' W 009°01'3 6.7
2017-Oct-09 12:30N 37°18' W 009°00'4 7.2
2017-Oct-09 12:00N 37°22' W 008°60'4 7.2
2017-Oct-09 11:29N 37°25' W 008°59'4 6.7
2017-Oct-09 10:57N 37°29' W 008°59'3 6.9
2017-Oct-09 10:30N 37°32' W 008°58'6 6.8
2017-Oct-09 09:37N 37°38' W 008°57'1 5.7
2017-Oct-09 09:26N 37°39' W 008°57'4 6.8
2017-Oct-09 08:52N 37°43' W 008°56'4 7.0
2017-Oct-09 08:18N 37°47' W 008°56'2 6.5
2017-Oct-09 08:00N 37°49' W 008°55'3 6.4
2017-Oct-09 07:30N 37°52' W 008°55'3 6.2
2017-Oct-09 07:00N 37°55' W 008°54'3 5.3
2017-Oct-09 06:31N 37°57' W 008°52'0 0.4
2017-Oct-09 05:59N 37°57' W 008°52'0 0.0
2017-Oct-09 05:29N 37°57' W 008°52'  

Dump ship's entire track history